createdAt,value
2019-05-30T00:02:06.970Z,10.70
2019-05-30T00:04:51.978Z,10.70
2019-05-30T00:07:18.363Z,10.70
2019-05-30T00:09:44.739Z,10.70
2019-05-30T00:12:11.153Z,10.70
2019-05-30T00:14:37.506Z,10.70
2019-05-30T00:17:05.111Z,10.70
2019-05-30T00:19:34.160Z,10.70
2019-05-30T00:22:00.851Z,10.70
2019-05-30T00:24:27.326Z,10.70
2019-05-30T00:26:53.903Z,10.70
2019-05-30T00:29:20.474Z,10.70
2019-05-30T00:31:46.944Z,10.70
2019-05-30T00:34:13.538Z,10.70
2019-05-30T00:36:40.131Z,10.70
2019-05-30T00:39:06.817Z,10.70
2019-05-30T00:41:33.596Z,10.70
2019-05-30T00:44:00.073Z,10.70
2019-05-30T00:46:26.460Z,10.60
2019-05-30T00:48:53.543Z,10.60
2019-05-30T00:51:20.001Z,10.60
2019-05-30T00:53:46.483Z,10.60
2019-05-30T00:56:12.845Z,10.60
2019-05-30T00:58:58.681Z,10.60
2019-05-30T01:01:25.299Z,10.60
2019-05-30T01:03:51.677Z,10.50
2019-05-30T01:06:18.140Z,10.60
2019-05-30T01:08:44.614Z,10.60
2019-05-30T01:11:10.977Z,10.50
2019-05-30T01:13:56.986Z,10.50
2019-05-30T01:16:23.625Z,10.40
2019-05-30T01:18:49.997Z,10.40
2019-05-30T01:21:17.027Z,10.30
2019-05-30T01:24:03.505Z,10.30
2019-05-30T01:26:30.212Z,10.30
2019-05-30T01:28:57.293Z,10.20
2019-05-30T01:31:23.753Z,10.10
2019-05-30T01:33:50.141Z,10.10
2019-05-30T01:36:16.627Z,10.10
2019-05-30T01:39:01.778Z,10.10
2019-05-30T01:41:30.069Z,10.10
2019-05-30T01:43:57.667Z,10.00
2019-05-30T01:46:24.183Z,10.00
2019-05-30T01:48:50.618Z,10.00
2019-05-30T01:51:17.124Z,9.90
2019-05-30T01:53:43.609Z,9.80
2019-05-30T01:56:10.131Z,9.80
2019-05-30T01:58:55.060Z,9.80
2019-05-30T02:01:25.220Z,9.60
2019-05-30T02:03:49.799Z,10.30
2019-05-30T02:06:16.247Z,9.60
2019-05-30T02:08:42.623Z,9.50
2019-05-30T02:11:11.706Z,9.50
2019-05-30T02:13:56.805Z,9.60
2019-05-30T02:16:23.289Z,9.40
2019-05-30T02:18:49.661Z,9.30
2019-05-30T02:21:16.130Z,9.20
2019-05-30T02:23:42.519Z,9.20
2019-05-30T02:26:08.867Z,9.10
2019-05-30T02:28:54.234Z,9.10
2019-05-30T02:31:37.678Z,9.10
2019-05-30T02:33:48.934Z,9.00
2019-05-30T02:36:15.368Z,8.90
2019-05-30T02:38:41.894Z,8.90
2019-05-30T02:41:10.088Z,8.80
2019-05-30T02:43:56.912Z,8.80
2019-05-30T02:46:23.276Z,8.80
2019-05-30T02:48:58.965Z,8.70
2019-05-30T02:51:19.032Z,8.70
2019-05-30T02:53:45.399Z,8.60
2019-05-30T02:56:12.621Z,8.60
2019-05-30T02:58:39.408Z,8.50
2019-05-30T03:01:06.955Z,8.50
2019-05-30T03:03:34.350Z,8.40
2019-05-30T03:06:01.802Z,8.50
2019-05-30T03:08:28.881Z,8.40
2019-05-30T03:10:55.561Z,8.30
2019-05-30T03:13:22.266Z,8.30
2019-05-30T03:16:09.277Z,8.30
2019-05-30T03:18:36.009Z,8.60
2019-05-30T03:21:03.279Z,8.30
2019-05-30T03:23:30.482Z,8.50
2019-05-30T03:25:56.947Z,8.20
2019-05-30T03:28:23.469Z,8.20
2019-05-30T03:30:50.327Z,8.10
2019-05-30T03:33:36.001Z,8.50
2019-05-30T03:36:10.908Z,8.10
2019-05-30T03:38:33.568Z,8.10
2019-05-30T03:41:00.023Z,8.10
2019-05-30T03:43:26.724Z,8.10
2019-05-30T03:45:53.579Z,8.20
2019-05-30T03:48:22.100Z,8.80
2019-05-30T03:50:51.431Z,8.30
2019-05-30T03:53:18.471Z,8.30
2019-05-30T03:55:48.826Z,8.40
2019-05-30T03:58:22.032Z,8.50
2019-05-30T04:00:52.201Z,8.60
2019-05-30T04:03:34.790Z,9.20
2019-05-30T04:06:07.042Z,8.80
2019-05-30T04:08:35.142Z,8.80
2019-05-30T04:11:07.378Z,8.80
2019-05-30T04:13:49.490Z,8.90
2019-05-30T04:16:16.211Z,8.90
2019-05-30T04:18:44.027Z,9.10
2019-05-30T04:21:11.496Z,9.10
2019-05-30T04:23:50.614Z,9.70
2019-05-30T04:26:18.114Z,9.20
2019-05-30T04:28:45.191Z,9.20
2019-05-30T04:31:12.457Z,9.30
2019-05-30T04:33:39.486Z,9.30
2019-05-30T04:36:05.969Z,9.50
2019-05-30T04:38:32.474Z,9.60
2019-05-30T04:40:58.933Z,9.60
2019-05-30T04:43:25.311Z,9.70
2019-05-30T04:45:51.931Z,9.80
2019-05-30T04:48:18.729Z,10.10
2019-05-30T04:51:05.653Z,10.20
2019-05-30T04:53:32.120Z,10.30
2019-05-30T04:55:58.506Z,10.60
2019-05-30T04:58:24.878Z,10.70
2019-05-30T05:00:51.387Z,10.90
2019-05-30T05:03:40.683Z,11.10
2019-05-30T05:06:04.703Z,11.50
2019-05-30T05:08:31.370Z,11.70
2019-05-30T05:10:57.746Z,11.90
2019-05-30T05:13:24.245Z,11.90
2019-05-30T05:16:12.620Z,11.90
2019-05-30T05:18:31.151Z,12.10
2019-05-30T05:20:57.540Z,12.70
2019-05-30T05:23:24.003Z,13.00
2019-05-30T05:26:00.449Z,13.00
2019-05-30T05:28:19.872Z,13.00
2019-05-30T05:30:46.484Z,13.30
2019-05-30T05:33:12.864Z,14.20
2019-05-30T05:35:59.328Z,15.00
2019-05-30T05:38:25.698Z,15.30
2019-05-30T05:40:52.278Z,15.90
2019-05-30T05:43:18.803Z,16.30
2019-05-30T05:45:46.379Z,16.90
2019-05-30T05:48:12.968Z,17.30
2019-05-30T05:50:39.381Z,17.80
2019-05-30T05:53:05.741Z,17.70
2019-05-30T05:55:32.161Z,17.70
2019-05-30T05:57:58.713Z,17.90
2019-05-30T06:00:25.559Z,18.10
2019-05-30T06:02:52.045Z,18.50
2019-05-30T06:05:18.616Z,19.00
2019-05-30T06:07:45.141Z,19.10
2019-05-30T06:10:12.135Z,19.00
2019-05-30T06:12:38.534Z,19.70
2019-05-30T06:15:05.146Z,20.10
2019-05-30T06:17:31.637Z,20.10
2019-05-30T06:19:58.014Z,20.60
2019-05-30T06:22:25.555Z,20.60
2019-05-30T06:24:52.083Z,20.40
2019-05-30T06:27:20.037Z,20.40
2019-05-30T06:29:46.537Z,20.90
2019-05-30T06:32:12.954Z,21.00
2019-05-30T06:34:40.237Z,21.20
2019-05-30T06:37:06.796Z,21.10
2019-05-30T06:39:33.251Z,21.40
2019-05-30T06:41:59.778Z,21.80
2019-05-30T06:44:26.442Z,22.10
2019-05-30T06:46:52.925Z,22.40
2019-05-30T06:49:20.600Z,22.50
2019-05-30T06:51:47.305Z,22.70
2019-05-30T06:54:13.776Z,22.00
2019-05-30T06:56:40.306Z,21.40
2019-05-30T06:59:06.801Z,21.00
2019-05-30T07:01:33.258Z,20.80
2019-05-30T07:03:59.815Z,21.60
2019-05-30T07:06:27.471Z,20.50
2019-05-30T07:08:54.934Z,20.10
2019-05-30T07:11:22.643Z,19.70
2019-05-30T07:13:49.188Z,19.20
2019-05-30T07:16:15.695Z,18.80
2019-05-30T07:18:42.358Z,18.50
2019-05-30T07:21:08.840Z,18.80
2019-05-30T07:23:39.042Z,18.10
2019-05-30T07:26:03.891Z,19.00
2019-05-30T07:28:30.544Z,20.50
2019-05-30T07:30:56.934Z,21.80
2019-05-30T07:33:23.935Z,22.20
2019-05-30T07:35:50.550Z,23.00
2019-05-30T07:38:17.079Z,23.50
2019-05-30T07:40:43.968Z,24.60
2019-05-30T07:43:10.345Z,24.90
2019-05-30T07:45:36.815Z,24.70
2019-05-30T07:48:03.614Z,23.30
2019-05-30T07:50:30.433Z,22.00
2019-05-30T07:52:57.163Z,21.50
2019-05-30T07:55:23.523Z,20.70
2019-05-30T07:57:50.028Z,20.00
2019-05-30T08:00:18.429Z,19.70
2019-05-30T08:02:45.035Z,19.30
2019-05-30T08:05:23.431Z,19.10
2019-05-30T08:07:40.343Z,18.90
2019-05-30T08:10:09.117Z,18.70
2019-05-30T08:12:36.610Z,18.50
2019-05-30T08:15:06.922Z,18.40
2019-05-30T08:17:33.704Z,18.20
2019-05-30T08:20:00.231Z,18.20
2019-05-30T08:22:27.885Z,18.10
2019-05-30T08:24:54.522Z,18.10
2019-05-30T08:27:21.117Z,18.10
2019-05-30T08:29:47.632Z,18.20
2019-05-30T08:32:14.152Z,18.10
2019-05-30T08:34:40.674Z,18.30
2019-05-30T08:37:07.279Z,18.50
2019-05-30T08:39:33.860Z,18.90
2019-05-30T08:42:00.266Z,19.20
2019-05-30T08:44:26.839Z,19.40
2019-05-30T08:46:53.471Z,19.00
2019-05-30T08:49:20.007Z,19.30
2019-05-30T08:52:00.225Z,20.00
2019-05-30T08:54:26.830Z,21.20
2019-05-30T08:56:53.200Z,20.50
2019-05-30T08:59:19.762Z,19.60
2019-05-30T09:01:48.325Z,19.10
2019-05-30T09:04:14.562Z,19.00
2019-05-30T09:06:41.817Z,18.90
2019-05-30T09:09:08.752Z,18.90
2019-05-30T09:11:35.874Z,18.60
2019-05-30T09:14:03.875Z,18.60
2019-05-30T09:16:30.598Z,18.60
2019-05-30T09:18:57.075Z,18.60
2019-05-30T09:21:23.673Z,18.60
2019-05-30T09:23:50.268Z,18.50
2019-05-30T09:26:16.828Z,18.50
2019-05-30T09:28:44.258Z,18.40
2019-05-30T09:31:10.884Z,18.40
2019-05-30T09:33:38.100Z,18.40
2019-05-30T09:36:13.061Z,18.70
2019-05-30T09:38:34.305Z,19.50
2019-05-30T09:41:00.849Z,21.30
2019-05-30T09:43:28.529Z,22.50
2019-05-30T09:45:55.041Z,23.70
2019-05-30T09:48:21.588Z,24.80
2019-05-30T09:50:48.813Z,25.20
2019-05-30T09:53:15.437Z,24.50
2019-05-30T09:55:43.255Z,23.20
2019-05-30T09:58:10.562Z,23.80
2019-05-30T10:00:37.367Z,24.60
2019-05-30T10:03:04.123Z,24.20
2019-05-30T10:05:30.779Z,24.50
2019-05-30T10:07:57.434Z,25.20
2019-05-30T10:10:24.373Z,24.20
2019-05-30T10:12:52.517Z,23.30
2019-05-30T10:15:20.103Z,22.60
2019-05-30T10:17:47.779Z,22.00
2019-05-30T10:20:15.544Z,21.50
2019-05-30T10:22:42.134Z,21.20
2019-05-30T10:25:09.155Z,20.90
2019-05-30T10:27:35.778Z,20.50
2019-05-30T10:30:07.561Z,20.20
2019-05-30T10:32:35.456Z,20.00
2019-05-30T10:35:02.345Z,19.90
2019-05-30T10:37:28.754Z,19.90
2019-05-30T10:39:58.720Z,19.80
2019-05-30T10:42:23.493Z,19.70
2019-05-30T10:44:51.860Z,19.90
2019-05-30T10:47:18.411Z,19.80
2019-05-30T10:49:45.324Z,19.90
2019-05-30T10:52:13.003Z,20.10
2019-05-30T10:54:39.401Z,20.50
2019-05-30T10:57:05.913Z,21.50
2019-05-30T10:59:32.499Z,22.00
2019-05-30T11:01:59.184Z,24.00
2019-05-30T11:04:25.911Z,24.30
2019-05-30T11:07:12.267Z,24.30
2019-05-30T11:09:41.714Z,24.70
2019-05-30T11:12:08.114Z,24.20
2019-05-30T11:14:34.795Z,23.80
2019-05-30T11:17:01.425Z,24.50
2019-05-30T11:19:27.890Z,25.20
2019-05-30T11:21:54.601Z,25.80
2019-05-30T11:24:21.266Z,25.70
2019-05-30T11:26:48.759Z,25.50
2019-05-30T11:29:16.303Z,25.10
2019-05-30T11:31:42.710Z,24.20
2019-05-30T11:34:09.098Z,24.30
2019-05-30T11:36:35.481Z,24.10
2019-05-30T11:39:01.890Z,23.60
2019-05-30T11:41:29.806Z,23.20
2019-05-30T11:43:57.710Z,23.10
2019-05-30T11:46:25.750Z,22.80
2019-05-30T11:48:52.191Z,22.30
2019-05-30T11:51:18.681Z,22.20
2019-05-30T11:53:45.256Z,22.10
2019-05-30T11:56:11.736Z,21.80
2019-05-30T11:58:38.121Z,21.60
2019-05-30T12:01:04.845Z,21.60
2019-05-30T12:03:31.413Z,21.80
2019-05-30T12:05:58.685Z,22.70
2019-05-30T12:08:25.266Z,23.40
2019-05-30T12:10:52.979Z,24.30
2019-05-30T12:13:19.700Z,24.70
2019-05-30T12:15:46.174Z,24.70
2019-05-30T12:18:12.675Z,24.70
2019-05-30T12:20:41.072Z,24.20
2019-05-30T12:23:07.576Z,24.30
2019-05-30T12:25:33.973Z,24.40
2019-05-30T12:28:00.363Z,24.90
2019-05-30T12:30:27.150Z,24.90
2019-05-30T12:32:54.188Z,24.80
2019-05-30T12:35:21.453Z,24.70
2019-05-30T12:37:54.716Z,24.90
2019-05-30T12:40:16.896Z,24.70
2019-05-30T12:42:43.289Z,24.20
2019-05-30T12:45:10.752Z,24.00
2019-05-30T12:47:37.270Z,23.80
2019-05-30T12:50:05.059Z,23.70
2019-05-30T12:52:31.662Z,23.00
2019-05-30T12:55:00.761Z,22.90
2019-05-30T12:57:27.846Z,22.40
2019-05-30T12:59:54.733Z,22.30
2019-05-30T13:02:21.450Z,22.00
2019-05-30T13:04:48.086Z,22.00
2019-05-30T13:07:14.472Z,21.90
2019-05-30T13:09:40.883Z,21.80
2019-05-30T13:12:07.302Z,22.00
2019-05-30T13:14:33.808Z,22.10
2019-05-30T13:17:00.211Z,22.30
2019-05-30T13:19:26.714Z,22.50
2019-05-30T13:21:53.820Z,22.40
2019-05-30T13:24:21.427Z,21.90
2019-05-30T13:26:47.941Z,21.60
2019-05-30T13:29:14.556Z,21.30
2019-05-30T13:31:41.038Z,21.10
2019-05-30T13:34:07.565Z,20.90
2019-05-30T13:36:34.255Z,21.00
2019-05-30T13:39:01.140Z,20.90
2019-05-30T13:41:27.812Z,21.20
2019-05-30T13:43:54.198Z,21.00
2019-05-30T13:46:20.600Z,21.00
2019-05-30T13:48:47.113Z,21.00
2019-05-30T13:51:13.510Z,20.90
2019-05-30T13:53:40.010Z,20.90
2019-05-30T13:56:07.702Z,20.70
2019-05-30T13:58:34.400Z,20.50
2019-05-30T14:01:04.896Z,20.30
2019-05-30T14:03:29.187Z,20.20
2019-05-30T14:05:55.637Z,20.30
2019-05-30T14:08:22.230Z,20.40
2019-05-30T14:10:48.882Z,20.40
2019-05-30T14:13:15.440Z,20.30
2019-05-30T14:15:41.899Z,20.00
2019-05-30T14:18:09.100Z,19.90
2019-05-30T14:20:35.681Z,19.60
2019-05-30T14:23:03.217Z,20.00
2019-05-30T14:25:29.962Z,20.00
2019-05-30T14:27:56.625Z,19.90
2019-05-30T14:30:23.424Z,19.90
2019-05-30T14:32:49.817Z,19.80
2019-05-30T14:35:16.716Z,19.90
2019-05-30T14:37:43.155Z,20.00
2019-05-30T14:40:14.287Z,20.50
2019-05-30T14:42:40.986Z,20.70
2019-05-30T14:45:10.619Z,20.70
2019-05-30T14:47:37.373Z,20.90
2019-05-30T14:50:06.739Z,20.90
2019-05-30T14:52:33.356Z,20.90
2019-05-30T14:54:59.731Z,21.00
2019-05-30T14:57:26.125Z,20.70
2019-05-30T14:59:52.600Z,20.80
2019-05-30T15:02:19.347Z,21.00
2019-05-30T15:04:45.697Z,21.10
2019-05-30T15:07:13.482Z,21.20
2019-05-30T15:09:42.452Z,20.80
2019-05-30T15:12:08.738Z,20.80
2019-05-30T15:14:35.224Z,20.70
2019-05-30T15:17:01.632Z,20.60
2019-05-30T15:19:29.496Z,20.60
2019-05-30T15:21:56.106Z,20.50
2019-05-30T15:24:23.179Z,20.30
2019-05-30T15:26:50.501Z,20.10
2019-05-30T15:29:16.979Z,20.20
2019-05-30T15:31:43.693Z,20.50
2019-05-30T15:34:10.537Z,20.60
2019-05-30T15:36:37.052Z,20.60
2019-05-30T15:39:06.828Z,20.80
2019-05-30T15:41:34.085Z,20.80
2019-05-30T15:44:00.955Z,20.60
2019-05-30T15:46:27.450Z,20.40
2019-05-30T15:48:53.918Z,20.20
2019-05-30T15:51:20.518Z,20.10
2019-05-30T15:53:48.109Z,20.10
2019-05-30T15:56:15.385Z,20.00
2019-05-30T15:58:41.967Z,20.00
2019-05-30T16:01:09.734Z,20.00
2019-05-30T16:03:36.356Z,17.80
2019-05-30T16:06:03.195Z,20.00
2019-05-30T16:08:29.841Z,20.00
2019-05-30T16:10:57.597Z,19.90
2019-05-30T16:13:24.099Z,19.90
2019-05-30T16:15:50.490Z,19.80
2019-05-30T16:18:17.744Z,19.80
2019-05-30T16:20:44.167Z,19.80
2019-05-30T16:23:12.595Z,19.70
2019-05-30T16:25:39.204Z,19.60
2019-05-30T16:28:05.584Z,19.60
2019-05-30T16:30:32.298Z,19.50
2019-05-30T16:32:58.674Z,19.40
2019-05-30T16:35:26.387Z,19.30
2019-05-30T16:37:53.173Z,19.40
2019-05-30T16:40:22.423Z,19.40
2019-05-30T16:42:49.185Z,19.30
2019-05-30T16:45:20.260Z,19.20
2019-05-30T16:47:44.132Z,19.10
2019-05-30T16:50:14.509Z,19.00
2019-05-30T16:52:41.444Z,18.90
2019-05-30T16:55:08.623Z,19.00
2019-05-30T16:57:36.216Z,18.90
2019-05-30T17:00:08.465Z,18.90
2019-05-30T17:02:34.960Z,18.80
2019-05-30T17:05:02.447Z,18.80
2019-05-30T17:07:28.857Z,18.90
2019-05-30T17:09:55.349Z,18.90
2019-05-30T17:12:21.868Z,18.80
2019-05-30T17:14:48.271Z,19.00
2019-05-30T17:17:16.130Z,19.00
2019-05-30T17:19:42.719Z,19.00
2019-05-30T17:22:09.218Z,19.00
2019-05-30T17:24:35.628Z,19.10
2019-05-30T17:27:02.092Z,19.10
2019-05-30T17:29:28.491Z,19.10
2019-05-30T17:31:54.864Z,19.10
2019-05-30T17:34:21.843Z,19.10
2019-05-30T17:36:48.456Z,18.90
2019-05-30T17:39:14.953Z,18.90
2019-05-30T17:41:41.440Z,18.80
2019-05-30T17:44:07.834Z,18.70
2019-05-30T17:46:35.503Z,18.60
2019-05-30T17:49:01.997Z,18.50
2019-05-30T17:51:28.391Z,18.40
2019-05-30T17:53:54.769Z,18.40
2019-05-30T17:56:22.057Z,18.30
2019-05-30T17:58:48.792Z,18.30
2019-05-30T18:01:15.162Z,18.20
2019-05-30T18:03:41.632Z,18.10
2019-05-30T18:06:08.114Z,18.00
2019-05-30T18:08:34.641Z,17.90
2019-05-30T18:11:01.160Z,17.90
2019-05-30T18:13:27.600Z,17.80
2019-05-30T18:15:55.180Z,17.70
2019-05-30T18:18:21.677Z,17.60
2019-05-30T18:20:49.276Z,17.60
2019-05-30T18:23:15.733Z,17.50
2019-05-30T18:25:43.410Z,17.30
2019-05-30T18:28:09.923Z,17.10
2019-05-30T18:30:38.624Z,17.10
2019-05-30T18:33:05.005Z,16.90
2019-05-30T18:35:32.507Z,16.70
2019-05-30T18:38:01.841Z,16.50
2019-05-30T18:40:33.216Z,16.40
2019-05-30T18:43:00.010Z,16.20
2019-05-30T18:45:35.222Z,16.00
2019-05-30T18:48:03.086Z,15.80
2019-05-30T18:50:31.663Z,15.60
2019-05-30T18:52:58.334Z,15.50
2019-05-30T18:55:24.817Z,15.30
2019-05-30T18:57:52.462Z,15.20
2019-05-30T19:00:19.251Z,15.10
2019-05-30T19:02:45.800Z,15.00
2019-05-30T19:05:12.392Z,14.90
2019-05-30T19:07:38.971Z,14.80
2019-05-30T19:10:05.986Z,14.60
2019-05-30T19:12:32.522Z,14.50
2019-05-30T19:14:58.960Z,14.40
2019-05-30T19:17:25.404Z,14.30
2019-05-30T19:19:51.900Z,14.20
2019-05-30T19:22:18.375Z,14.10
2019-05-30T19:24:44.945Z,13.90
2019-05-30T19:27:11.436Z,14.60
2019-05-30T19:29:37.928Z,13.70
2019-05-30T19:32:04.731Z,13.60
2019-05-30T19:34:31.140Z,13.60
2019-05-30T19:36:57.646Z,13.40
2019-05-30T19:39:24.237Z,13.40
2019-05-30T19:41:56.889Z,13.40
2019-05-30T19:44:20.243Z,13.30
2019-05-30T19:46:46.625Z,13.30
2019-05-30T19:49:13.040Z,13.20
2019-05-30T19:51:39.577Z,13.10
2019-05-30T19:54:05.977Z,13.10
2019-05-30T19:56:33.311Z,13.10
2019-05-30T19:59:00.806Z,13.10
2019-05-30T20:01:27.268Z,12.80
2019-05-30T20:03:53.785Z,12.70
2019-05-30T20:06:20.337Z,12.60
2019-05-30T20:08:55.509Z,12.50
2019-05-30T20:11:15.328Z,12.40
2019-05-30T20:13:41.787Z,12.20
2019-05-30T20:16:08.402Z,12.20
2019-05-30T20:18:35.518Z,12.20
2019-05-30T20:21:02.275Z,12.20
2019-05-30T20:23:28.789Z,12.10
2019-05-30T20:25:55.286Z,12.10
2019-05-30T20:28:21.763Z,12.00
2019-05-30T20:30:48.394Z,11.90
2019-05-30T20:33:15.051Z,11.80
2019-05-30T20:35:43.319Z,11.80
2019-05-30T20:38:10.084Z,11.80
2019-05-30T20:40:36.902Z,11.80
2019-05-30T20:43:03.577Z,11.80
2019-05-30T20:45:30.026Z,11.80
2019-05-30T20:47:56.556Z,11.70
2019-05-30T20:50:23.251Z,11.70
2019-05-30T20:52:49.890Z,11.70
2019-05-30T20:55:17.464Z,11.70
2019-05-30T20:57:44.077Z,11.70
2019-05-30T21:00:12.042Z,11.70
2019-05-30T21:02:39.147Z,11.60
2019-05-30T21:05:08.463Z,11.60
2019-05-30T21:07:35.862Z,11.60
2019-05-30T21:10:04.393Z,11.70
2019-05-30T21:12:38.784Z,11.60
2019-05-30T21:15:04.237Z,11.60
2019-05-30T21:17:31.922Z,11.60
2019-05-30T21:19:58.304Z,11.50
2019-05-30T21:22:24.663Z,11.50
2019-05-30T21:24:51.154Z,11.50
2019-05-30T21:27:17.785Z,11.40
2019-05-30T21:29:45.763Z,11.40
2019-05-30T21:32:12.380Z,11.40
2019-05-30T21:34:40.101Z,11.30
2019-05-30T21:37:06.771Z,11.30
2019-05-30T21:39:33.193Z,11.20
2019-05-30T21:41:59.680Z,11.20
2019-05-30T21:44:26.156Z,11.10
2019-05-30T21:46:52.683Z,11.10
2019-05-30T21:49:19.235Z,11.10
2019-05-30T21:51:45.692Z,11.00
2019-05-30T21:54:12.109Z,11.00
2019-05-30T21:56:39.819Z,10.90
2019-05-30T21:59:06.392Z,10.90
2019-05-30T22:01:36.270Z,10.80
2019-05-30T22:04:04.532Z,10.80
2019-05-30T22:06:31.016Z,10.80
2019-05-30T22:08:57.586Z,10.80
2019-05-30T22:11:24.341Z,10.80
2019-05-30T22:13:51.943Z,9.70
2019-05-30T22:16:18.641Z,10.70
2019-05-30T22:18:45.974Z,10.70
2019-05-30T22:21:12.962Z,10.70
2019-05-30T22:23:39.347Z,10.60
2019-05-30T22:26:06.331Z,10.60
2019-05-30T22:28:32.920Z,10.50
2019-05-30T22:31:00.409Z,10.50
2019-05-30T22:33:26.760Z,10.40
2019-05-30T22:35:53.374Z,10.40
2019-05-30T22:38:19.968Z,10.30
2019-05-30T22:40:46.437Z,10.30
2019-05-30T22:43:24.838Z,10.20
2019-05-30T22:45:41.631Z,10.20
2019-05-30T22:48:08.148Z,10.20
2019-05-30T22:50:35.936Z,10.10
2019-05-30T22:53:02.702Z,10.20
2019-05-30T22:55:29.065Z,10.20
2019-05-30T22:57:56.705Z,10.90
2019-05-30T23:00:23.597Z,10.10
2019-05-30T23:02:50.086Z,10.10
2019-05-30T23:05:16.576Z,10.80
2019-05-30T23:07:43.320Z,10.20
2019-05-30T23:10:11.455Z,10.30
2019-05-30T23:12:37.883Z,10.30
2019-05-30T23:15:06.373Z,10.40
2019-05-30T23:17:32.731Z,10.30
2019-05-30T23:19:59.114Z,10.40
2019-05-30T23:22:25.472Z,10.50
2019-05-30T23:24:52.621Z,10.50
2019-05-30T23:27:20.415Z,10.60
2019-05-30T23:29:47.665Z,10.60
2019-05-30T23:32:14.196Z,10.60
2019-05-30T23:34:40.635Z,10.70
2019-05-30T23:37:07.093Z,10.70
2019-05-30T23:39:34.581Z,10.80
2019-05-30T23:42:00.948Z,10.80
2019-05-30T23:44:27.351Z,10.80
2019-05-30T23:46:53.709Z,10.80
2019-05-30T23:49:20.209Z,10.90
2019-05-30T23:51:46.683Z,10.80
2019-05-30T23:54:13.184Z,10.90
2019-05-30T23:56:42.210Z,10.90
2019-05-30T23:59:08.055Z,10.90
